Time;durP1;ratioP1;P1;durP2;ratioP2;P2;SDS_P1;SDS_P2;PMS_P1;PMS_P2;Temp;Humidity;BMP_temperature;BMP_pressure;BME280_temperature;BME280_humidity;BME280_pressure;Samples;Min_cycle;Max_cycle;Signal;HPM_P1;HPM_P2
2022/09/08 00:00:38;;;;;;;24.35;16.30;;;16.00;99.90;;;;;;5071110;28;20481;-80
2022/09/08 00:03:12;;;;;;;23.15;14.93;;;16.00;99.90;;;;;;5070089;28;20119;-80
2022/09/08 00:05:52;;;;;;;19.38;15.20;;;16.00;99.90;;;;;;5071053;28;20041;-80
2022/09/08 00:08:20;;;;;;;22.48;16.50;;;16.00;99.90;;;;;;5054133;28;20086;-80
2022/09/08 00:10:47;;;;;;;28.73;17.55;;;16.00;99.90;;;;;;5071021;28;20041;-80
2022/09/08 00:13:13;;;;;;;25.30;17.50;;;15.90;99.90;;;;;;5070557;28;20055;-80
2022/09/08 00:15:39;;;;;;;25.65;18.63;;;15.90;99.90;;;;;;5072126;28;20036;-80
2022/09/08 00:18:06;;;;;;;22.77;17.40;;;15.80;99.90;;;;;;5070448;28;20585;-80
2022/09/08 00:20:32;;;;;;;26.55;16.10;;;16.00;99.90;;;;;;5071598;28;20071;-80
2022/09/08 00:22:58;;;;;;;22.13;16.38;;;15.90;99.90;;;;;;5074011;28;20044;-80
2022/09/08 00:25:24;;;;;;;25.20;18.70;;;15.90;99.90;;;;;;5073882;28;20051;-80
2022/09/08 00:27:49;;;;;;;25.80;18.17;;;15.90;99.90;;;;;;5074081;28;20432;-80
2022/09/08 00:30:16;;;;;;;24.60;17.58;;;15.90;99.90;;;;;;5057429;28;20417;-80
2022/09/08 00:32:41;;;;;;;29.33;19.63;;;15.90;99.90;;;;;;5073751;28;20500;-80
2022/09/08 00:35:14;;;;;;;25.48;19.20;;;15.90;99.90;;;;;;5074016;28;20128;-80
2022/09/08 00:37:41;;;;;;;26.70;18.83;;;15.90;99.90;;;;;;5074237;28;20088;-80
2022/09/08 00:40:07;;;;;;;25.02;19.15;;;15.90;99.90;;;;;;5073851;28;20117;-80
2022/09/08 00:42:33;;;;;;;28.15;19.85;;;16.00;99.90;;;;;;5073444;28;20036;-80
2022/09/08 00:44:58;;;;;;;29.30;19.42;;;16.00;99.90;;;;;;5073777;28;20044;-80
2022/09/08 00:47:28;;;;;;;31.98;21.65;;;16.00;99.90;;;;;;5073441;28;20044;-80
2022/09/08 00:50:00;;;;;;;27.10;19.85;;;16.10;99.90;;;;;;5074708;28;20076;-80
2022/09/08 00:52:30;;;;;;;33.70;21.42;;;16.10;99.90;;;;;;5073360;28;20400;-80
2022/09/08 00:54:56;;;;;;;30.17;21.33;;;16.20;99.90;;;;;;5056709;28;20128;-80
2022/09/08 00:57:22;;;;;;;30.17;21.15;;;16.20;99.90;;;;;;5073272;28;20087;-80
2022/09/08 00:59:48;;;;;;;29.88;20.80;;;16.10;99.90;;;;;;5073392;28;20043;-80
2022/09/08 01:02:23;;;;;;;41.65;26.58;;;16.20;99.90;;;;;;5073436;28;20089;-79
2022/09/08 01:05:11;;;;;;;37.83;26.58;;;16.20;99.90;;;;;;5089861;28;20040;-79
2022/09/08 01:13:31;;;;;;;36.60;26.30;;;16.30;99.90;;;;;;5074718;28;20058;-80
2022/09/08 01:15:57;;;;;;;40.75;27.40;;;16.30;99.90;;;;;;5073770;28;20048;-80
2022/09/08 01:18:24;;;;;;;34.83;25.85;;;16.30;99.90;;;;;;5073242;28;20049;-80
2022/09/08 01:21:21;;;;;;;43.45;27.90;;;16.30;99.90;;;;;;5073538;28;20488;-80
2022/09/08 01:24:02;;;;;;;43.38;28.48;;;16.30;99.90;;;;;;5055795;28;20041;-78
2022/09/08 01:26:46;;;;;;;42.55;27.98;;;16.30;99.90;;;;;;5072350;28;20037;-78
2022/09/08 01:29:15;;;;;;;40.95;29.30;;;16.30;99.90;;;;;;5072452;28;20113;-78
2022/09/08 01:31:45;;;;;;;40.05;27.23;;;16.40;99.90;;;;;;5071492;28;20060;-78
2022/09/08 01:34:11;;;;;;;46.42;29.10;;;16.40;99.90;;;;;;5055762;28;20060;-78
2022/09/08 01:36:36;;;;;;;47.42;30.20;;;16.40;99.90;;;;;;5072145;28;20056;-78
2022/09/08 01:39:02;;;;;;;43.17;29.45;;;16.40;99.90;;;;;;5071998;28;20040;-78
2022/09/08 01:41:28;;;;;;;47.90;31.60;;;16.50;99.90;;;;;;5055021;28;20046;-78
2022/09/08 01:43:53;;;;;;;45.55;30.25;;;16.60;99.90;;;;;;5055419;28;20047;-78
2022/09/08 01:46:19;;;;;;;47.88;30.83;;;16.50;99.90;;;;;;5071828;28;20068;-78
2022/09/08 01:48:45;;;;;;;46.22;30.60;;;16.60;99.90;;;;;;5071913;28;20396;-78
2022/09/08 01:51:10;;;;;;;52.13;33.78;;;16.60;99.90;;;;;;5071868;28;20426;-78
2022/09/08 01:53:36;;;;;;;40.78;30.08;;;16.70;99.90;;;;;;5072037;28;20115;-78
2022/09/08 01:56:04;;;;;;;48.38;31.40;;;16.70;99.90;;;;;;5071974;28;20076;-78
2022/09/08 01:58:30;;;;;;;46.20;31.60;;;16.70;99.90;;;;;;5071634;28;20102;-78
2022/09/08 02:00:56;;;;;;;43.35;30.95;;;16.70;99.90;;;;;;5072911;28;20041;-78
2022/09/08 02:03:22;;;;;;;46.35;30.83;;;16.70;99.90;;;;;;5071381;28;20043;-78
2022/09/08 02:05:47;;;;;;;46.72;31.83;;;16.80;99.90;;;;;;5071941;28;20041;-78
2022/09/08 02:08:13;;;;;;;47.30;31.83;;;16.70;99.90;;;;;;5071677;28;20039;-78
2022/09/08 02:10:39;;;;;;;43.92;31.08;;;16.80;99.90;;;;;;5054760;28;20137;-78
2022/09/08 02:13:05;;;;;;;48.65;31.42;;;16.80;99.90;;;;;;5071048;28;20127;-78
2022/09/08 02:15:32;;;;;;;43.80;31.42;;;16.80;99.90;;;;;;5071350;28;20485;-78
2022/09/08 02:17:58;;;;;;;44.63;31.17;;;16.80;99.90;;;;;;5071162;28;20048;-78
2022/09/08 02:20:24;;;;;;;46.65;32.13;;;16.80;99.90;;;;;;5071492;28;20082;-78
2022/09/08 02:22:52;;;;;;;49.13;31.67;;;16.80;99.90;;;;;;5071134;28;20143;-78
2022/09/08 02:25:17;;;;;;;46.58;31.23;;;16.80;99.90;;;;;;5071120;28;20052;-78
2022/09/08 02:27:43;;;;;;;46.78;30.20;;;16.90;99.90;;;;;;5071423;28;20413;-78
2022/09/08 02:30:09;;;;;;;47.13;31.42;;;16.90;99.90;;;;;;5071170;28;20037;-78
2022/09/08 02:32:35;;;;;;;41.50;30.67;;;16.90;99.90;;;;;;5072105;28;20051;-78
2022/09/08 02:35:01;;;;;;;45.58;31.25;;;16.90;99.90;;;;;;5070945;28;20052;-78
2022/09/08 02:37:27;;;;;;;43.50;29.80;;;16.90;99.90;;;;;;5070829;28;20408;-78
2022/09/08 02:39:53;;;;;;;44.58;31.42;;;16.90;99.90;;;;;;5071237;28;20044;-78
2022/09/08 02:42:18;;;;;;;48.08;30.35;;;16.90;99.90;;;;;;5070521;28;20047;-78
2022/09/08 02:44:44;;;;;;;43.00;30.10;;;16.90;99.90;;;;;;5071784;28;20377;-78
2022/09/08 02:47:10;;;;;;;44.90;30.60;;;17.00;99.90;;;;;;5070754;28;20068;-78
2022/09/08 02:49:36;;;;;;;40.65;28.90;;;16.90;99.90;;;;;;5071519;28;20072;-81
2022/09/08 02:52:02;;;;;;;41.10;28.92;;;16.90;99.90;;;;;;5070841;28;20074;-80
2022/09/08 02:54:28;;;;;;;46.03;32.28;;;16.90;99.90;;;;;;5071237;28;20109;-80
2022/09/08 02:56:53;;;;;;;43.60;30.30;;;16.90;99.90;;;;;;5071866;28;20044;-80
2022/09/08 02:59:19;;;;;;;41.92;29.95;;;17.00;99.90;;;;;;5071378;28;20048;-80
2022/09/08 03:01:44;;;;;;;42.70;30.00;;;17.00;99.90;;;;;;5071121;28;20550;-80
2022/09/08 03:04:11;;;;;;;44.97;29.88;;;17.00;99.90;;;;;;5054573;28;20089;-80
2022/09/08 03:06:37;;;;;;;48.58;30.13;;;17.00;99.90;;;;;;5071190;28;20040;-80
2022/09/08 03:09:04;;;;;;;43.80;30.10;;;17.00;99.90;;;;;;5071325;28;20032;-80
2022/09/08 03:11:31;;;;;;;38.85;28.30;;;17.00;99.90;;;;;;5071247;28;20048;-80
2022/09/08 03:13:56;;;;;;;42.53;29.50;;;17.10;99.90;;;;;;5071267;28;20036;-81
2022/09/08 03:16:22;;;;;;;44.22;30.88;;;17.10;99.90;;;;;;5071387;28;20098;-80
2022/09/08 03:18:48;;;;;;;43.17;29.55;;;17.10;99.90;;;;;;5071583;28;20044;-80
2022/09/08 03:21:15;;;;;;;45.47;30.02;;;17.10;99.90;;;;;;5072234;28;20044;-81
2022/09/08 03:23:41;;;;;;;42.95;29.30;;;17.10;99.90;;;;;;5070580;28;20051;-80
2022/09/08 03:26:18;;;;;;;41.83;28.00;;;17.10;99.90;;;;;;5070701;28;20037;-81
2022/09/08 03:28:45;;;;;;;41.92;29.55;;;17.10;99.90;;;;;;5054263;28;20032;-80
2022/09/08 03:31:16;;;;;;;44.63;29.25;;;17.10;99.90;;;;;;5070656;28;20041;-81
2022/09/08 03:33:43;;;;;;;44.28;29.35;;;17.10;99.90;;;;;;5071428;28;20698;-80
2022/09/08 03:36:11;;;;;;;44.75;29.75;;;17.20;99.90;;;;;;5054887;28;20042;-80
2022/09/08 03:38:37;;;;;;;42.67;27.58;;;17.10;99.90;;;;;;5073911;28;20508;-80
2022/09/08 03:41:15;;;;;;;45.28;29.05;;;17.10;99.90;;;;;;5072180;28;20040;-81
2022/09/08 03:43:47;;;;;;;47.22;29.35;;;17.00;99.90;;;;;;5054951;28;20047;-80
2022/09/08 03:46:13;;;;;;;47.03;31.10;;;17.10;99.90;;;;;;5073142;28;20044;-80
2022/09/08 03:48:39;;;;;;;54.70;31.88;;;17.00;99.90;;;;;;5071523;28;20041;-81
2022/09/08 03:51:09;;;;;;;50.67;31.30;;;17.00;99.90;;;;;;5072135;28;20055;-80
2022/09/08 03:53:35;;;;;;;41.53;29.88;;;17.10;99.90;;;;;;5073122;28;20055;-80
2022/09/08 03:56:05;;;;;;;49.45;31.02;;;17.10;99.90;;;;;;5076819;28;20404;-80
2022/09/08 03:58:30;;;;;;;45.10;30.92;;;17.00;99.90;;;;;;5076627;28;20044;-80
2022/09/08 04:00:56;;;;;;;43.20;31.23;;;17.00;99.90;;;;;;5077158;28;20485;-80
2022/09/08 04:03:22;;;;;;;45.90;31.15;;;17.00;99.90;;;;;;5075614;28;20040;-80
2022/09/08 04:05:47;;;;;;;49.97;33.25;;;17.10;99.90;;;;;;5077171;28;20114;-80
2022/09/08 04:08:13;;;;;;;49.53;31.05;;;17.00;99.90;;;;;;5076078;28;20451;-80
2022/09/08 04:10:42;;;;;;;43.92;30.35;;;17.00;99.90;;;;;;5075764;28;20119;-80
2022/09/08 04:13:08;;;;;;;41.83;29.52;;;17.00;99.90;;;;;;5075475;28;20473;-80
2022/09/08 04:15:33;;;;;;;50.28;31.98;;;17.00;99.90;;;;;;5075583;28;20044;-80
2022/09/08 04:17:59;;;;;;;50.60;32.47;;;16.90;99.90;;;;;;5076506;28;20045;-80
2022/09/08 04:20:24;;;;;;;48.78;33.25;;;16.90;99.90;;;;;;5059070;28;20036;-80
2022/09/08 04:22:51;;;;;;;50.67;32.83;;;16.90;99.90;;;;;;5058718;28;20052;-80
2022/09/08 04:25:17;;;;;;;45.58;31.25;;;16.80;99.90;;;;;;5075437;28;20507;-80
2022/09/08 04:27:43;;;;;;;48.75;31.42;;;16.80;99.90;;;;;;5075684;28;20119;-80
2022/09/08 04:30:09;;;;;;;47.90;32.53;;;16.80;99.90;;;;;;5074790;28;20116;-80
2022/09/08 04:32:35;;;;;;;48.00;32.85;;;16.80;99.90;;;;;;5074626;28;20041;-80
2022/09/08 04:35:00;;;;;;;50.63;33.95;;;16.80;99.90;;;;;;5075341;28;20484;-80
2022/09/08 04:37:26;;;;;;;52.92;34.78;;;16.80;99.90;;;;;;5058510;28;20447;-81
2022/09/08 04:39:52;;;;;;;55.17;35.65;;;16.80;99.90;;;;;;5079129;28;20048;-80
2022/09/08 04:42:17;;;;;;;52.88;34.95;;;16.80;99.90;;;;;;5099649;28;20045;-81
2022/09/08 04:44:43;;;;;;;54.92;35.00;;;16.80;99.90;;;;;;5100361;28;20052;-82
2022/09/08 04:47:09;;;;;;;52.10;33.92;;;16.90;99.90;;;;;;5099883;28;20048;-82
2022/09/08 04:49:34;;;;;;;50.75;34.10;;;16.90;99.90;;;;;;5100615;28;20071;-82
2022/09/08 04:52:00;;;;;;;50.60;34.08;;;16.90;99.90;;;;;;5098672;28;20044;-82
2022/09/08 04:54:26;;;;;;;50.10;34.17;;;17.00;99.90;;;;;;5081940;28;20112;-82
2022/09/08 04:56:51;;;;;;;51.42;36.20;;;17.00;99.90;;;;;;5076331;28;20135;-81
2022/09/08 04:59:17;;;;;;;49.75;34.50;;;17.00;99.90;;;;;;5073084;28;20073;-81
2022/09/08 05:01:43;;;;;;;55.50;34.45;;;17.00;99.90;;;;;;5072710;28;20067;-81
2022/09/08 05:04:09;;;;;;;60.78;36.78;;;17.00;99.90;;;;;;5072865;28;20047;-81
2022/09/08 05:06:35;;;;;;;60.25;37.28;;;17.00;99.90;;;;;;5072054;28;20033;-81
2022/09/08 05:09:02;;;;;;;57.55;37.03;;;17.00;99.90;;;;;;5055968;28;20041;-81
2022/09/08 05:11:31;;;;;;;52.95;35.45;;;17.00;99.90;;;;;;5055655;28;20033;-81
2022/09/08 05:13:56;;;;;;;57.28;35.05;;;17.00;99.90;;;;;;5072394;28;20496;-81
2022/09/08 05:16:27;;;;;;;55.15;35.58;;;17.10;99.90;;;;;;5073585;28;20067;-80
2022/09/08 05:18:55;;;;;;;57.08;35.03;;;17.00;99.90;;;;;;5072498;28;20408;-81
2022/09/08 05:21:21;;;;;;;59.72;38.03;;;17.00;99.90;;;;;;5073561;28;20033;-80
2022/09/08 05:23:51;;;;;;;52.35;35.13;;;17.00;99.90;;;;;;5072180;28;20105;-80
2022/09/08 05:26:18;;;;;;;60.90;39.22;;;16.90;99.90;;;;;;5073569;28;20032;-80
2022/09/08 05:28:44;;;;;;;58.50;38.38;;;17.00;99.90;;;;;;5073611;28;20089;-80
2022/09/08 05:31:14;;;;;;;64.05;39.13;;;16.80;99.90;;;;;;5073611;28;20123;-80
2022/09/08 05:33:40;;;;;;;69.55;40.08;;;16.90;99.90;;;;;;5093203;28;20041;-81
2022/09/08 05:36:21;;;;;;;68.38;40.38;;;16.90;99.90;;;;;;5098118;28;20048;-78
2022/09/08 05:38:47;;;;;;;70.22;39.80;;;16.90;99.90;;;;;;5080695;28;20040;-81
2022/09/08 05:41:14;;;;;;;68.22;40.83;;;16.80;99.90;;;;;;5075829;28;20083;-81
2022/09/08 05:43:40;;;;;;;72.90;40.67;;;16.80;99.90;;;;;;5055789;28;20045;-79
2022/09/08 05:46:06;;;;;;;81.85;41.60;;;16.80;99.90;;;;;;5055992;28;20055;-80
2022/09/08 05:48:32;;;;;;;76.80;42.35;;;16.70;99.90;;;;;;5055570;28;20036;-80
2022/09/08 05:50:58;;;;;;;63.55;38.45;;;16.80;99.90;;;;;;5055393;28;20127;-80
2022/09/08 05:53:24;;;;;;;60.40;38.13;;;16.80;99.90;;;;;;5072444;28;20059;-79
2022/09/08 05:56:02;;;;;;;65.18;39.63;;;16.90;99.90;;;;;;5073319;28;20052;-79
2022/09/08 05:58:29;;;;;;;70.55;39.08;;;16.90;99.90;;;;;;5073222;28;20128;-80
2022/09/08 06:00:57;;;;;;;69.53;40.20;;;16.90;99.90;;;;;;5074475;28;20037;-80
2022/09/08 06:03:22;;;;;;;88.30;39.80;;;16.90;99.90;;;;;;5073383;28;20040;-81
2022/09/08 06:05:48;;;;;;;96.93;40.22;;;16.90;99.90;;;;;;5073388;28;20036;-80
2022/09/08 06:08:14;;;;;;;81.40;38.65;;;16.90;99.90;;;;;;5072815;28;20071;-80
2022/09/08 06:10:39;;;;;;;67.45;37.70;;;17.00;99.90;;;;;;5071346;28;20045;-80
2022/09/08 06:13:05;;;;;;;69.35;39.13;;;16.90;99.90;;;;;;5054615;28;20036;-80
2022/09/08 06:15:31;;;;;;;90.72;41.33;;;17.00;99.90;;;;;;5073565;28;20408;-80
2022/09/08 06:18:01;;;;;;;68.63;37.80;;;17.00;99.90;;;;;;5072658;28;20045;-80
2022/09/08 06:20:26;;;;;;;67.10;39.10;;;17.00;99.90;;;;;;5070960;28;20044;-80
2022/09/08 06:22:52;;;;;;;61.85;38.67;;;17.00;99.90;;;;;;5070070;28;20101;-80
2022/09/08 06:25:18;;;;;;;90.78;41.10;;;17.00;99.90;;;;;;5072028;28;20476;-81
2022/09/08 06:28:01;;;;;;;74.55;39.63;;;17.00;99.90;;;;;;5070821;28;20086;-80
2022/09/08 06:30:27;;;;;;;65.97;36.72;;;17.00;99.90;;;;;;5070360;28;20037;-80
2022/09/08 06:32:59;;;;;;;98.25;41.90;;;17.00;99.90;;;;;;5053852;28;20575;-80
2022/09/08 06:35:33;;;;;;;72.20;37.53;;;17.00;99.90;;;;;;5054334;28;20066;-80
2022/09/08 06:38:06;;;;;;;73.47;38.67;;;17.00;99.90;;;;;;5073183;28;20159;-79
2022/09/08 06:40:46;;;;;;;79.78;38.22;;;17.00;99.90;;;;;;5072450;28;20048;-80
2022/09/08 06:43:17;;;;;;;72.88;39.17;;;17.10;99.90;;;;;;5070517;28;20500;-79
2022/09/08 06:45:47;;;;;;;70.35;37.25;;;17.10;99.90;;;;;;5072471;28;20033;-80
2022/09/08 06:48:35;;;;;;;65.90;36.33;;;17.10;99.90;;;;;;5059117;28;20492;-79
2022/09/08 06:51:11;;;;;;;76.03;37.42;;;17.20;99.90;;;;;;5081231;28;20047;-80
2022/09/08 06:53:57;;;;;;;66.93;36.50;;;17.10;99.90;;;;;;5097511;28;20051;-80
2022/09/08 06:56:44;;;;;;;67.00;36.40;;;17.10;99.90;;;;;;5097683;28;20037;-80
2022/09/08 06:59:40;;;;;;;65.40;37.20;;;17.10;99.90;;;;;;5098004;28;20033;-80
2022/09/08 07:02:27;;;;;;;60.22;35.13;;;17.20;99.90;;;;;;5082621;28;20128;-80
2022/09/08 07:05:33;;;;;;;67.78;36.55;;;17.20;99.90;;;;;;5070406;28;20098;-81
2022/09/08 07:08:50;;;;;;;71.18;37.08;;;17.20;99.90;;;;;;5081204;28;20063;-81
2022/09/08 07:12:46;;;;;;;59.17;34.45;;;17.20;99.90;;;;;;5089335;28;20044;-81
2022/09/08 07:15:16;;;;;;;54.30;32.80;;;17.20;99.90;;;;;;5066140;28;20122;-80
2022/09/08 07:18:10;;;;;;;49.20;31.40;;;17.20;99.90;;;;;;5070884;28;20047;-81
2022/09/08 07:20:36;;;;;;;53.10;32.35;;;17.20;99.90;;;;;;5064465;28;20052;-80
2022/09/08 07:23:24;;;;;;;50.85;31.45;;;17.20;99.90;;;;;;5053153;28;20102;-80
2022/09/08 07:26:35;;;;;;;52.10;31.92;;;17.20;99.90;;;;;;5053304;28;20037;-81
2022/09/08 07:29:33;;;;;;;54.13;31.73;;;17.10;99.90;;;;;;5069691;28;20037;-81
2022/09/08 07:32:00;;;;;;;40.30;23.90;;;17.10;99.90;;;;;;5066500;28;20421;-81
2022/09/08 07:34:28;;;;;;;39.67;23.05;;;17.20;99.90;;;;;;5069960;28;20071;-81
2022/09/08 07:37:26;;;;;;;37.17;21.77;;;17.20;99.90;;;;;;5069869;28;20044;-81
2022/09/08 07:40:06;;;;;;;34.30;21.48;;;17.20;99.90;;;;;;5044023;28;20055;-81
2022/09/08 07:42:37;;;;;;;31.90;19.48;;;17.20;99.90;;;;;;5069420;28;20036;-81
2022/09/08 07:45:13;;;;;;;26.50;17.70;;;17.20;99.90;;;;;;5069829;28;20127;-81
2022/09/08 07:51:13;;;;;;;27.42;15.75;;;17.20;99.90;;;;;;5011837;28;20053;-82
2022/09/08 07:53:46;;;;;;;23.13;14.32;;;17.30;99.90;;;;;;5068386;28;20055;-81
2022/09/08 07:56:30;;;;;;;20.48;13.48;;;17.30;99.90;;;;;;5069159;28;20048;-81
2022/09/08 08:00:07;;;;;;;17.85;11.95;;;17.30;99.90;;;;;;5053187;28;20413;-81
2022/09/08 08:03:23;;;;;;;21.13;12.52;;;17.20;99.90;;;;;;5011352;28;20375;-81
2022/09/08 08:06:39;;;;;;;15.27;11.32;;;17.30;99.90;;;;;;5011923;28;20037;-81
2022/09/08 08:09:19;;;;;;;16.48;10.50;;;17.30;99.90;;;;;;5001588;28;20038;-83
2022/09/08 08:12:23;;;;;;;16.00;9.90;;;17.30;99.90;;;;;;5046431;28;20075;-82
2022/09/08 08:15:16;;;;;;;16.25;10.13;;;17.30;99.90;;;;;;5045710;28;20294;-82
2022/09/08 08:18:05;;;;;;;17.10;9.52;;;17.20;99.90;;;;;;5066310;28;20070;-83
2022/09/08 08:20:58;;;;;;;11.52;8.05;;;17.30;99.90;;;;;;5030021;28;20105;-83
2022/09/08 08:23:52;;;;;;;18.35;9.65;;;17.30;99.90;;;;;;5063609;28;20290;-82
2022/09/08 08:26:29;;;;;;;15.25;8.30;;;17.30;99.90;;;;;;5049545;28;20045;-82
2022/09/08 08:29:26;;;;;;;17.17;8.50;;;17.30;99.90;;;;;;5050960;28;20158;-82
2022/09/08 08:32:03;;;;;;;14.23;8.27;;;17.40;99.90;;;;;;5067586;28;20174;-82
2022/09/08 08:34:33;;;;;;;12.82;7.80;;;17.40;99.90;;;;;;5053072;28;20421;-83
2022/09/08 08:37:03;;;;;;;12.85;7.28;;;17.40;99.90;;;;;;5052538;28;20124;-82
2022/09/08 08:39:32;;;;;;;14.05;8.35;;;17.50;99.90;;;;;;5067224;28;20040;-82
2022/09/08 08:42:24;;;;;;;13.70;7.78;;;17.50;99.90;;;;;;5051674;28;20047;-82
2022/09/08 08:45:26;;;;;;;12.75;7.97;;;17.60;99.90;;;;;;5072342;28;20036;-82
2022/09/08 08:47:54;;;;;;;11.50;7.57;;;17.60;99.90;;;;;;5073263;28;20124;-82
2022/09/08 08:50:44;;;;;;;11.10;7.30;;;17.50;99.90;;;;;;5046070;28;20041;-82
2022/09/08 08:53:44;;;;;;;13.85;7.45;;;17.60;99.90;;;;;;5074137;28;20074;-82
2022/09/08 08:56:19;;;;;;;12.43;6.47;;;17.60;99.90;;;;;;5075181;28;20068;-82
2022/09/08 08:58:53;;;;;;;12.52;8.05;;;17.60;99.90;;;;;;5072759;28;20044;-82
2022/09/08 09:01:53;;;;;;;12.55;6.45;;;17.60;99.90;;;;;;5072534;28;20492;-82
2022/09/08 09:04:31;;;;;;;9.07;5.65;;;17.60;99.90;;;;;;5071913;28;20072;-81
2022/09/08 09:07:06;;;;;;;10.80;5.80;;;17.60;99.90;;;;;;5073741;28;20070;-82
2022/09/08 09:09:51;;;;;;;9.98;5.95;;;17.50;99.90;;;;;;5044386;28;20037;-82
2022/09/08 09:12:46;;;;;;;9.93;6.00;;;17.50;99.90;;;;;;5065343;28;20051;-82
2022/09/08 09:15:26;;;;;;;11.45;5.75;;;17.50;99.90;;;;;;5073406;28;20047;-82
2022/09/08 09:17:51;;;;;;;10.63;6.18;;;17.50;99.90;;;;;;5074348;28;20045;-82
2022/09/08 09:20:42;;;;;;;9.35;5.60;;;17.40;99.90;;;;;;5070950;28;20444;-82
2022/09/08 09:23:35;;;;;;;9.63;7.03;;;17.40;99.90;;;;;;5072260;28;20054;-82
2022/09/08 09:26:06;;;;;;;10.32;6.25;;;17.30;99.90;;;;;;5062276;28;20063;-82
2022/09/08 09:28:40;;;;;;;11.77;5.80;;;17.30;99.90;;;;;;5066361;28;20040;-82
2022/09/08 09:31:31;;;;;;;7.68;4.72;;;17.30;99.90;;;;;;5071714;28;20041;-82
2022/09/08 09:34:23;;;;;;;4.97;3.10;;;17.20;99.90;;;;;;5071950;28;20530;-82
2022/09/08 09:37:24;;;;;;;4.78;3.30;;;17.20;99.90;;;;;;5054686;28;20051;-82
2022/09/08 09:40:03;;;;;;;12.15;2.88;;;17.20;99.90;;;;;;5054329;28;20040;-80
2022/09/08 09:42:56;;;;;;;4.35;2.53;;;17.20;99.90;;;;;;5055103;28;20044;-80
2022/09/08 09:45:48;;;;;;;4.70;2.60;;;17.20;99.90;;;;;;5056660;28;20044;-80
2022/09/08 09:48:54;;;;;;;4.10;2.50;;;17.20;99.90;;;;;;5033161;28;20052;-80
2022/09/08 09:51:48;;;;;;;5.07;2.88;;;17.10;99.90;;;;;;5042562;28;20118;-80
2022/09/08 09:54:14;;;;;;;5.25;3.10;;;17.10;99.90;;;;;;5055581;28;20044;-80
2022/09/08 09:57:25;;;;;;;6.32;3.80;;;17.10;99.90;;;;;;5055269;28;20037;-80
2022/09/08 10:00:09;;;;;;;5.95;3.45;;;17.10;99.90;;;;;;5055609;28;20040;-80
2022/09/08 10:02:52;;;;;;;6.03;3.30;;;17.10;99.90;;;;;;5055114;28;20051;-79
2022/09/08 10:05:28;;;;;;;6.57;2.80;;;17.10;99.90;;;;;;5072032;28;20080;-80
2022/09/08 10:08:11;;;;;;;7.55;2.92;;;17.10;99.90;;;;;;5055593;28;20486;-80
2022/09/08 10:11:25;;;;;;;3.80;2.95;;;17.10;99.90;;;;;;5070820;28;20040;-80
2022/09/08 10:14:21;;;;;;;6.95;3.10;;;17.00;99.90;;;;;;5070433;28;20056;-79
2022/09/08 10:17:21;;;;;;;5.15;3.47;;;17.00;99.90;;;;;;5095512;28;20044;-78
2022/09/08 10:20:03;;;;;;;5.05;3.72;;;17.10;99.90;;;;;;5084705;28;20059;-81
2022/09/08 10:22:50;;;;;;;7.25;3.50;;;17.10;99.90;;;;;;5070590;28;20053;-80
2022/09/08 10:25:16;;;;;;;5.38;3.55;;;17.10;99.90;;;;;;5072567;28;20110;-80
2022/09/08 10:27:59;;;;;;;5.85;3.42;;;17.10;99.90;;;;;;5053598;28;20464;-80
2022/09/08 10:30:56;;;;;;;5.95;3.17;;;17.10;99.90;;;;;;5071041;28;20105;-80
2022/09/08 10:33:46;;;;;;;5.07;3.85;;;17.20;99.90;;;;;;5070062;28;20089;-80
2022/09/08 10:36:12;;;;;;;4.88;3.55;;;17.20;99.90;;;;;;5070521;28;20080;-81
2022/09/08 10:38:59;;;;;;;5.03;2.83;;;17.20;99.90;;;;;;5071738;28;20040;-81
2022/09/08 10:41:43;;;;;;;4.90;2.90;;;17.20;99.90;;;;;;5071375;28;20047;-80
2022/09/08 10:44:46;;;;;;;6.15;3.28;;;17.10;99.90;;;;;;5070290;28;20048;-81
2022/09/08 10:47:18;;;;;;;4.10;3.47;;;17.20;99.90;;;;;;5070278;28;20104;-81
2022/09/08 10:49:59;;;;;;;11.10;6.90;;;17.10;99.90;;;;;;5053804;28;20132;-80
2022/09/08 10:52:39;;;;;;;5.22;4.28;;;17.20;99.90;;;;;;5069986;28;20055;-82
2022/09/08 10:55:43;;;;;;;3.92;2.85;;;17.20;99.90;;;;;;5053625;28;20064;-82
2022/09/08 10:58:14;;;;;;;7.07;3.20;;;17.20;99.90;;;;;;5070226;28;20131;-82
2022/09/08 11:01:06;;;;;;;4.00;3.08;;;17.20;99.90;;;;;;5070671;28;20052;-81
2022/09/08 11:03:52;;;;;;;3.88;2.95;;;17.20;99.90;;;;;;5069647;28;20048;-81
2022/09/08 11:06:54;;;;;;;5.50;3.22;;;17.30;99.90;;;;;;5070696;28;20044;-82
2022/09/08 11:09:58;;;;;;;4.90;3.53;;;17.30;99.90;;;;;;5070392;28;20496;-82
2022/09/08 11:12:43;;;;;;;9.45;3.70;;;17.30;99.90;;;;;;5053439;28;20055;-82
2022/09/08 11:15:27;;;;;;;4.65;3.47;;;17.30;99.90;;;;;;5071807;28;20041;-82
2022/09/08 11:18:11;;;;;;;3.90;3.40;;;17.40;99.90;;;;;;5070131;28;20119;-82
2022/09/08 11:20:50;;;;;;;5.65;3.65;;;17.40;99.90;;;;;;5070115;28;20629;-79
2022/09/08 11:23:36;;;;;;;6.50;4.03;;;17.50;99.90;;;;;;5069264;28;20036;-83
2022/09/08 11:26:26;;;;;;;7.85;4.88;;;17.50;99.90;;;;;;5069842;28;20047;-84
2022/09/08 11:29:03;;;;;;;6.20;4.38;;;17.60;99.90;;;;;;5052702;28;20047;-83
2022/09/08 11:31:57;;;;;;;7.60;4.43;;;17.60;99.90;;;;;;5052319;28;20131;-83
2022/09/08 11:34:43;;;;;;;7.55;5.53;;;17.60;99.90;;;;;;5069355;28;20046;-83
2022/09/08 11:37:35;;;;;;;6.00;5.03;;;17.60;99.90;;;;;;5069915;28;20604;-84
2022/09/08 11:40:38;;;;;;;8.75;5.82;;;17.70;99.90;;;;;;5052253;28;20052;-83
2022/09/08 11:43:31;;;;;;;10.15;6.10;;;17.70;99.90;;;;;;5048442;28;20389;-80
2022/09/08 11:46:17;;;;;;;10.23;6.25;;;17.80;99.90;;;;;;5073468;28;20086;-80
2022/09/08 11:48:58;;;;;;;8.63;6.38;;;17.80;99.90;;;;;;5072571;28;20044;-80
2022/09/08 11:51:35;;;;;;;10.05;6.35;;;18.00;99.90;;;;;;5072788;28;20040;-79
2022/09/08 11:54:39;;;;;;;9.25;7.28;;;18.00;99.90;;;;;;5073086;28;20123;-80
2022/09/08 11:57:20;;;;;;;8.95;6.63;;;18.10;99.90;;;;;;5057807;28;20048;-80
2022/09/08 12:00:03;;;;;;;8.25;6.43;;;18.20;99.90;;;;;;5076112;28;20055;-79
2022/09/08 12:03:00;;;;;;;14.05;6.97;;;18.30;99.90;;;;;;5057302;28;20052;-80
2022/09/08 12:05:52;;;;;;;9.00;6.78;;;18.40;99.90;;;;;;5073834;28;20485;-80
2022/09/08 12:08:48;;;;;;;10.38;7.32;;;18.50;99.90;;;;;;5059194;28;20073;-80
2022/09/08 12:11:48;;;;;;;9.48;6.57;;;18.60;99.90;;;;;;5057977;28;20101;-79
2022/09/08 12:14:32;;;;;;;11.07;6.85;;;18.70;99.90;;;;;;5074847;28;20068;-81
2022/09/08 12:17:29;;;;;;;10.43;7.72;;;18.70;99.90;;;;;;5070459;28;20117;-79
2022/09/08 12:20:21;;;;;;;10.80;8.25;;;18.70;99.90;;;;;;5066665;28;20036;-79
2022/09/08 12:22:52;;;;;;;10.65;7.97;;;18.80;99.90;;;;;;5073841;28;20049;-78
2022/09/08 12:25:32;;;;;;;12.93;7.82;;;18.80;99.90;;;;;;5066929;28;20073;-77
2022/09/08 12:28:37;;;;;;;12.27;8.38;;;18.90;99.90;;;;;;5072511;28;20037;-78
2022/09/08 12:31:08;;;;;;;10.20;7.10;;;18.90;99.90;;;;;;5074293;28;20048;-79
2022/09/08 12:33:37;;;;;;;9.90;7.10;;;18.80;99.90;;;;;;5056996;28;20050;-78
2022/09/08 12:36:22;;;;;;;12.18;7.55;;;18.90;99.90;;;;;;5073700;28;20074;-78
2022/09/08 12:39:38;;;;;;;11.77;7.03;;;19.00;99.90;;;;;;5070089;28;20057;-78
2022/09/08 12:42:18;;;;;;;9.75;7.32;;;19.10;99.90;;;;;;5069530;28;20104;-79
2022/09/08 12:45:18;;;;;;;11.02;7.97;;;19.20;99.90;;;;;;5061468;28;20045;-78
2022/09/08 12:48:08;;;;;;;11.95;7.57;;;19.20;99.90;;;;;;5048825;28;20044;-78
2022/09/08 12:51:01;;;;;;;12.38;8.32;;;19.20;99.90;;;;;;5067932;28;20036;-78
2022/09/08 12:53:54;;;;;;;13.63;8.00;;;19.30;99.90;;;;;;5070167;28;20048;-78
2022/09/08 12:56:57;;;;;;;11.65;8.00;;;19.40;99.90;;;;;;5053488;28;20055;-78
2022/09/08 13:00:09;;;;;;;11.23;8.30;;;19.50;99.90;;;;;;5070134;28;20076;-78
2022/09/08 13:02:58;;;;;;;10.85;7.43;;;19.60;99.90;;;;;;5053308;28;20626;-78
2022/09/08 13:05:51;;;;;;;11.52;8.13;;;19.70;99.90;;;;;;5045238;28;20523;-79
2022/09/08 13:08:44;;;;;;;10.80;8.02;;;19.80;99.90;;;;;;5069893;28;20090;-79
2022/09/08 13:11:19;;;;;;;9.60;7.47;;;19.80;99.90;;;;;;5061975;28;20044;-79
2022/09/08 13:13:45;;;;;;;11.38;7.57;;;19.90;99.90;;;;;;5072746;28;20105;-84
2022/09/08 13:16:41;;;;;;;18.15;12.30;;;19.90;99.90;;;;;;5073758;28;20047;-81
2022/09/08 13:19:39;;;;;;;10.00;8.23;;;20.00;99.90;;;;;;5072590;28;20055;-81
2022/09/08 13:22:30;;;;;;;11.20;7.50;;;20.10;99.90;;;;;;5055480;28;20072;-81
2022/09/08 13:25:27;;;;;;;11.15;7.95;;;20.10;99.90;;;;;;5072164;28;20493;-81
2022/09/08 13:28:25;;;;;;;10.32;7.47;;;20.10;99.90;;;;;;5054932;28;20050;-81
2022/09/08 13:31:05;;;;;;;11.85;8.30;;;20.10;99.90;;;;;;5071917;28;20408;-81
2022/09/08 13:33:59;;;;;;;12.18;7.20;;;20.00;99.90;;;;;;5072514;28;20139;-81